Time;durP1;ratioP1;P1;durP2;ratioP2;P2;SDS_P1;SDS_P2;PMS_P1;PMS_P2;Temp;Humidity;BMP_temperature;BMP_pressure;BME280_temperature;BME280_humidity;BME280_pressure;Samples;Min_cycle;Max_cycle;Signal;HPM_P1;HPM_P2
2023/10/18 00:01:39;;;;;;;12.17;5.57;;;;;;;14.04;54.28;101390.09;5075139;28;20510;-70
2023/10/18 00:04:05;;;;;;;13.53;6.67;;;;;;;13.67;54.74;101390.63;5077485;28;20595;-70
2023/10/18 00:06:32;;;;;;;9.73;5.73;;;;;;;13.66;55.92;101388.88;5088408;28;20027;-71
2023/10/18 00:08:57;;;;;;;12.17;6.33;;;;;;;13.93;54.81;101392.03;5083101;28;20027;-70
2023/10/18 00:11:25;;;;;;;12.63;6.20;;;;;;;13.94;54.93;101396.34;5100048;28;20020;-70
2023/10/18 00:13:53;;;;;;;15.37;6.60;;;;;;;13.45;56.16;101391.78;5074903;28;20024;-69
2023/10/18 00:16:21;;;;;;;13.90;6.00;;;;;;;13.68;56.15;101384.50;5091724;28;20023;-70
2023/10/18 00:18:47;;;;;;;11.03;5.37;;;;;;;13.71;55.57;101380.94;5092566;28;20032;-70
2023/10/18 00:21:13;;;;;;;9.03;5.33;;;;;;;13.58;56.02;101369.75;5092168;28;20039;-70
2023/10/18 00:23:39;;;;;;;12.87;6.80;;;;;;;13.98;54.47;101365.66;5094703;28;20015;-70
2023/10/18 00:26:09;;;;;;;10.00;5.53;;;;;;;14.29;54.12;101366.03;5112817;28;20016;-70
2023/10/18 00:28:38;;;;;;;12.17;6.30;;;;;;;13.72;55.34;101373.06;5088230;28;20024;-70
2023/10/18 00:31:17;;;;;;;12.97;6.50;;;;;;;13.74;55.57;101366.00;5093587;28;20019;-70
2023/10/18 00:33:46;;;;;;;14.47;6.77;;;;;;;13.98;54.76;101360.41;5074457;28;20015;-70
2023/10/18 00:36:16;;;;;;;14.90;7.07;;;;;;;14.41;53.31;101357.94;5090879;28;20032;-71
2023/10/18 00:38:42;;;;;;;12.50;6.17;;;;;;;13.99;54.59;101352.50;5090989;28;20027;-70
2023/10/18 00:41:52;;;;;;;10.30;5.50;;;;;;;14.19;53.83;101351.28;5099771;28;20030;-70
2023/10/18 00:43:56;;;;;;;12.07;6.50;;;;;;;13.83;54.15;101362.34;5097654;28;20035;-70
2023/10/18 00:46:22;;;;;;;10.50;5.70;;;;;;;13.91;54.28;101357.00;5093426;28;20015;-70
2023/10/18 00:48:48;;;;;;;15.00;6.27;;;;;;;13.80;55.26;101364.19;5110436;28;20030;-70
2023/10/18 00:51:17;;;;;;;15.30;6.93;;;;;;;13.74;54.54;101366.00;5094336;28;20020;-71
2023/10/18 00:53:45;;;;;;;11.87;5.73;;;;;;;14.37;52.88;101350.97;5083989;28;20012;-71
2023/10/18 00:56:12;;;;;;;13.23;6.30;;;;;;;14.25;52.89;101345.94;5099315;28;20316;-70
2023/10/18 00:58:40;;;;;;;12.50;6.37;;;;;;;14.13;53.71;101351.41;5074456;28;20053;-70
2023/10/18 01:01:09;;;;;;;11.17;6.27;;;;;;;14.60;52.60;101352.31;5073917;28;20024;-70
2023/10/18 01:03:41;;;;;;;15.03;7.17;;;;;;;14.26;52.92;101352.94;5102194;28;20527;-69
2023/10/18 01:06:20;;;;;;;11.83;6.40;;;;;;;14.76;51.79;101342.41;5084535;28;20036;-69
2023/10/18 01:08:46;;;;;;;13.67;6.30;;;;;;;14.55;51.86;101348.94;5103152;28;20106;-70
2023/10/18 01:11:12;;;;;;;12.20;6.40;;;;;;;14.35;52.20;101342.25;5104346;28;20027;-70
2023/10/18 01:13:43;;;;;;;11.97;5.73;;;;;;;14.41;52.80;101336.88;5084785;28;20077;-70
2023/10/18 01:16:14;;;;;;;9.60;5.70;;;;;;;14.75;52.20;101333.66;5078733;28;20561;-69
2023/10/18 01:18:43;;;;;;;10.40;5.30;;;;;;;14.24;53.03;101328.41;5092683;28;20020;-70
2023/10/18 01:21:19;;;;;;;15.67;7.07;;;;;;;14.34;52.78;101327.38;5091429;28;20483;-69
2023/10/18 01:23:59;;;;;;;17.57;6.53;;;;;;;14.62;51.88;101316.34;5073337;28;20036;-70
2023/10/18 01:26:26;;;;;;;12.67;6.20;;;;;;;14.66;51.60;101310.16;5084574;28;20015;-69
2023/10/18 01:28:54;;;;;;;11.43;5.97;;;;;;;14.17;52.62;101304.00;5075382;28;20019;-70
2023/10/18 01:31:20;;;;;;;10.07;5.53;;;;;;;14.08;52.95;101307.66;5088635;28;20482;-70
2023/10/18 01:33:47;;;;;;;11.63;5.83;;;;;;;13.89;54.11;101312.34;5091155;28;20509;-69
2023/10/18 01:36:17;;;;;;;16.20;7.67;;;;;;;14.21;52.92;101315.34;5092359;28;20028;-70
2023/10/18 01:38:46;;;;;;;10.87;6.00;;;;;;;14.23;53.54;101310.91;5093537;28;20110;-69
2023/10/18 01:44:06;;;;;;;11.67;6.60;;;;;;;14.28;52.75;101298.56;5089606;28;20059;-69
2023/10/18 01:46:45;;;;;;;13.47;5.70;;;;;;;14.55;52.42;101291.06;5073153;28;20027;-69
2023/10/18 01:49:16;;;;;;;10.13;5.83;;;;;;;14.01;52.16;101292.91;5073138;28;20024;-69
2023/10/18 01:51:43;;;;;;;11.87;6.17;;;;;;;14.01;53.28;101290.28;5072999;28;20456;-70
2023/10/18 01:54:18;;;;;;;11.90;6.20;;;;;;;13.90;53.90;101281.69;5094496;28;20467;-69
2023/10/18 01:56:46;;;;;;;11.07;6.13;;;;;;;13.80;54.22;101278.34;5107159;28;20470;-69
2023/10/18 01:59:17;;;;;;;16.83;5.57;;;;;;;13.68;53.80;101276.78;5109769;28;20023;-69
2023/10/18 02:01:53;;;;;;;9.00;5.30;;;;;;;13.42;54.55;101273.69;5093200;28;20076;-69
2023/10/18 02:04:31;;;;;;;10.93;6.27;;;;;;;13.76;54.52;101266.16;5092415;28;20030;-69
2023/10/18 02:06:57;;;;;;;11.73;5.97;;;;;;;13.59;54.13;101266.44;5092081;28;20035;-70
2023/10/18 02:09:27;;;;;;;11.60;6.33;;;;;;;13.80;53.98;101259.94;5074575;28;20034;-69
2023/10/18 02:11:53;;;;;;;10.80;5.47;;;;;;;13.57;54.48;101257.69;5072970;28;20016;-69
2023/10/18 02:14:18;;;;;;;10.50;5.80;;;;;;;13.51;54.13;101252.53;5070972;28;20532;-70
2023/10/18 02:16:45;;;;;;;10.23;6.00;;;;;;;13.82;54.23;101252.91;5072251;28;20063;-69
2023/10/18 02:19:13;;;;;;;11.07;5.63;;;;;;;13.51;54.54;101255.16;5090768;28;20020;-69
2023/10/18 02:21:40;;;;;;;13.83;5.03;;;;;;;14.03;53.08;101245.56;5092783;28;20015;-69
2023/10/18 02:24:07;;;;;;;10.53;5.33;;;;;;;13.95;53.27;101248.31;5110682;28;20020;-69
2023/10/18 02:26:32;;;;;;;8.67;5.10;;;;;;;13.85;53.02;101244.13;5101318;28;20035;-69
2023/10/18 02:29:11;;;;;;;11.27;4.90;;;;;;;14.06;52.63;101241.09;5108009;28;20019;-69
2023/10/18 02:31:38;;;;;;;11.97;5.27;;;;;;;14.11;52.45;101237.50;5077924;28;20069;-69
2023/10/18 02:34:04;;;;;;;10.70;5.40;;;;;;;14.26;52.05;101232.00;5091598;28;20098;-69
2023/10/18 02:36:33;;;;;;;10.63;5.33;;;;;;;14.13;52.79;101225.22;5081642;28;20024;-72
2023/10/18 02:38:59;;;;;;;10.00;5.30;;;;;;;13.16;54.79;101227.63;5085971;28;20501;-69
2023/10/18 02:41:28;;;;;;;10.50;5.13;;;;;;;12.97;55.23;101229.66;5090079;28;20044;-69
2023/10/18 02:43:54;;;;;;;10.83;5.90;;;;;;;14.06;53.32;101222.69;5072069;28;20055;-69
2023/10/18 02:46:23;;;;;;;8.87;5.17;;;;;;;13.84;52.91;101221.34;5091381;28;20070;-69
2023/10/18 02:48:51;;;;;;;9.60;4.97;;;;;;;13.85;53.49;101204.72;5097213;28;20028;-68
2023/10/18 02:51:22;;;;;;;9.63;4.90;;;;;;;13.74;53.90;101202.25;5092652;28;20050;-69
2023/10/18 02:53:48;;;;;;;9.00;4.90;;;;;;;14.31;52.24;101202.97;5105043;28;20113;-70
2023/10/18 02:56:17;;;;;;;9.77;5.03;;;;;;;13.70;53.12;101209.31;5070855;28;20035;-69
2023/10/18 02:58:43;;;;;;;8.97;5.23;;;;;;;14.47;51.70;101203.53;5100156;28;20455;-70
2023/10/18 03:01:09;;;;;;;9.57;5.10;;;;;;;14.40;51.62;101203.66;5089936;28;20023;-70
2023/10/18 03:03:35;;;;;;;9.33;4.97;;;;;;;14.41;51.18;101189.63;5091842;28;20104;-69
2023/10/18 03:06:06;;;;;;;12.10;5.33;;;;;;;14.42;52.16;101195.72;5109173;28;20055;-70
2023/10/18 03:08:32;;;;;;;10.47;5.53;;;;;;;14.02;51.97;101197.34;5072551;28;20054;-69
2023/10/18 03:11:01;;;;;;;8.97;4.73;;;;;;;14.83;50.40;101190.53;5072414;28;20035;-70
2023/10/18 03:13:27;;;;;;;11.57;5.70;;;;;;;14.33;50.63;101186.28;5094846;28;20020;-69
2023/10/18 03:18:54;;;;;;;10.30;4.97;;;;;;;14.59;50.34;101187.50;5064751;28;20028;-69
2023/10/18 03:21:22;;;;;;;10.97;5.50;;;;;;;13.93;51.67;101187.03;5094942;28;20027;-69
2023/10/18 03:23:52;;;;;;;11.90;5.40;;;;;;;14.25;51.27;101175.03;5092783;28;20024;-69
2023/10/18 03:26:23;;;;;;;7.90;4.30;;;;;;;14.52;51.39;101172.72;5078416;28;20076;-70
2023/10/18 03:28:52;;;;;;;9.73;5.27;;;;;;;14.58;50.86;101167.34;5094015;28;20027;-70
2023/10/18 03:31:28;;;;;;;7.53;4.83;;;;;;;14.10;51.08;101163.06;5081089;28;20036;-70
2023/10/18 03:34:04;;;;;;;9.33;4.80;;;;;;;14.41;50.85;101151.91;5074302;28;20028;-69
2023/10/18 03:36:34;;;;;;;8.40;4.83;;;;;;;14.40;50.85;101152.84;5081333;28;20024;-69
2023/10/18 03:39:21;;;;;;;8.87;4.93;;;;;;;14.19;51.29;101146.22;5095766;28;20141;-70
2023/10/18 03:41:52;;;;;;;10.03;5.17;;;;;;;14.36;50.47;101141.50;5093741;28;20079;-69
2023/10/18 03:44:21;;;;;;;;;;;;;;;14.49;50.72;101143.88;5081790;28;20019;-70
2023/10/18 03:46:47;;;;;;;9.40;4.33;;;;;;;14.55;50.78;101133.22;5082289;28;19923;-70
2023/10/18 03:49:24;;;;;;;8.73;4.73;;;;;;;14.64;50.39;101121.66;5095347;28;20027;-70
2023/10/18 03:51:56;;;;;;;10.90;4.17;;;;;;;14.63;49.81;101126.06;5112946;28;20052;-69
2023/10/18 03:54:27;;;;;;;15.50;5.03;;;;;;;14.02;50.51;101134.28;5109398;28;20024;-70
2023/10/18 03:56:53;;;;;;;8.80;4.53;;;;;;;14.54;49.77;101131.50;5082688;28;20024;-70
2023/10/18 03:59:21;;;;;;;8.30;4.80;;;;;;;14.60;50.17;101115.56;5083291;28;20364;-70
2023/10/18 04:02:35;;;;;;;10.07;5.47;;;;;;;13.90;51.65;101119.63;5096545;28;20027;-70
2023/10/18 04:04:47;;;;;;;8.67;5.20;;;;;;;14.55;49.95;101113.03;5100015;28;20032;-69
2023/10/18 04:07:16;;;;;;;10.97;4.67;;;;;;;14.15;50.99;101107.75;5085307;28;20020;-70
2023/10/18 04:12:19;;;;;;;9.40;5.27;;;;;;;14.36;50.31;101099.41;5093343;28;20039;-69
2023/10/18 04:14:58;;;;;;;11.37;4.83;;;;;;;14.20;50.90;101103.28;5075894;28;20027;-69
2023/10/18 04:20:22;;;;;;;7.97;4.67;;;;;;;14.60;49.95;101094.50;5112449;28;20047;-70
2023/10/18 04:22:49;;;;;;;7.83;4.67;;;;;;;14.53;50.59;101103.44;5095214;28;20073;-70
2023/10/18 04:25:17;;;;;;;11.73;5.43;;;;;;;14.52;50.33;101101.72;5094461;28;20023;-70
2023/10/18 04:27:45;;;;;;;9.43;4.47;;;;;;;14.71;49.20;101089.94;5093672;28;20032;-70
2023/10/18 04:30:16;;;;;;;7.33;4.23;;;;;;;14.35;49.85;101095.06;5087936;28;20172;-70
2023/10/18 04:32:42;;;;;;;8.87;5.33;;;;;;;14.26;49.80;101090.03;5096216;28;20026;-70
2023/10/18 04:35:17;;;;;;;9.20;4.73;;;;;;;14.71;49.60;101092.56;5094722;28;20023;-70
2023/10/18 04:37:43;;;;;;;7.63;4.07;;;;;;;14.82;49.47;101088.78;5110189;28;20059;-69
2023/10/18 04:40:22;;;;;;;9.57;4.73;;;;;;;14.66;49.39;101078.63;5073959;28;20024;-70
2023/10/18 04:42:48;;;;;;;8.37;4.33;;;;;;;14.71;49.20;101081.16;5074881;28;20052;-70
2023/10/18 04:45:16;;;;;;;6.93;4.20;;;;;;;14.58;48.87;101070.03;5075502;28;20107;-70
2023/10/18 04:47:42;;;;;;;10.50;4.70;;;;;;;14.02;50.00;101072.97;5074722;28;20081;-70
2023/10/18 04:50:11;;;;;;;6.77;4.43;;;;;;;14.55;50.13;101070.09;5078242;28;20024;-70
2023/10/18 04:52:40;;;;;;;9.90;4.63;;;;;;;14.62;49.30;101061.16;5075203;28;20024;-70
2023/10/18 04:55:15;;;;;;;8.67;4.33;;;;;;;14.91;48.99;101062.28;5085519;28;20089;-70
2023/10/18 04:57:41;;;;;;;8.10;4.33;;;;;;;14.90;48.54;101050.00;5095428;28;20123;-70
2023/10/18 05:02:53;;;;;;;6.43;4.03;;;;;;;14.20;50.09;101051.56;5110203;28;20134;-70
2023/10/18 05:05:18;;;;;;;9.30;5.03;;;;;;;14.52;49.25;101043.84;5079245;28;20533;-70
2023/10/18 05:07:47;;;;;;;8.73;4.50;;;;;;;14.59;48.99;101034.94;5075152;28;20053;-71
2023/10/18 05:10:17;;;;;;;7.30;4.23;;;;;;;14.58;48.77;101035.84;5073826;28;20028;-70
2023/10/18 05:12:47;;;;;;;9.23;5.00;;;;;;;14.89;48.95;101032.47;5091365;28;20080;-70
2023/10/18 05:15:18;;;;;;;8.90;5.57;;;;;;;14.32;49.49;101031.16;5112211;28;20016;-71
2023/10/18 05:17:43;;;;;;;10.73;4.70;;;;;;;14.48;49.53;101026.41;5098130;28;20031;-71
2023/10/18 05:22:45;;;;;;;8.77;4.50;;;;;;;14.67;49.21;101011.09;5101364;28;20043;-70
2023/10/18 05:44:00;;;;;;;8.00;4.37;;;;;;;14.72;48.73;100980.28;5107355;28;20561;-71
2023/10/18 05:46:34;;;;;;;8.30;4.32;;;;;;;13.69;50.37;101000.06;5073391;28;20034;-71
2023/10/18 05:49:00;;;;;;;9.63;5.27;;;;;;;14.23;50.16;100990.16;5073686;28;20477;-71
2023/10/18 05:51:29;;;;;;;11.17;4.33;;;;;;;14.49;48.87;100986.91;5090125;28;20035;-71
2023/10/18 05:53:59;;;;;;;7.90;4.13;;;;;;;13.88;50.46;100981.31;5095052;28;20024;-71
2023/10/18 05:56:30;;;;;;;7.30;4.47;;;;;;;14.10;50.52;100983.47;5084601;28;20023;-71
2023/10/18 06:01:40;;;;;;;9.50;4.57;;;;;;;14.38;48.80;100971.41;5107529;28;20039;-71
2023/10/18 06:04:06;;;;;;;8.80;4.37;;;;;;;14.27;49.98;100964.69;5083026;28;20032;-70
2023/10/18 06:06:31;;;;;;;10.17;5.93;;;;;;;14.81;48.68;100963.38;5085202;28;20068;-71
2023/10/18 06:08:57;;;;;;;10.40;4.20;;;;;;;14.40;49.23;100960.88;5072451;28;20047;-70
2023/10/18 06:11:23;;;;;;;9.40;4.97;;;;;;;14.95;47.73;100958.66;5079975;28;20089;-71
2023/10/18 06:13:48;;;;;;;9.43;4.43;;;;;;;14.15;49.29;100958.81;5075760;28;20024;-71
2023/10/18 06:16:20;;;;;;;8.63;4.23;;;;;;;14.24;49.91;100957.72;5073158;28;20050;-71
2023/10/18 06:18:49;;;;;;;10.10;4.90;;;;;;;14.56;49.10;100949.06;5073339;28;20354;-71
2023/10/18 06:21:20;;;;;;;8.13;4.20;;;;;;;14.57;49.17;100952.56;5074520;28;20483;-71
2023/10/18 06:23:55;;;;;;;8.50;5.00;;;;;;;14.63;48.50;100944.56;5081097;28;20475;-71
2023/10/18 06:26:33;;;;;;;8.53;4.40;;;;;;;14.72;48.39;100946.06;5079380;28;20027;-70
2023/10/18 06:29:08;;;;;;;7.60;4.60;;;;;;;14.10;48.97;100944.91;5073463;28;20024;-71
2023/10/18 06:31:40;;;;;;;11.10;4.63;;;;;;;14.67;48.54;100942.69;5073678;28;20471;-71
2023/10/18 06:34:10;;;;;;;9.50;4.77;;;;;;;14.68;48.43;100950.53;5072477;28;20024;-71
2023/10/18 06:36:39;;;;;;;8.37;4.30;;;;;;;14.39;49.07;100932.81;5096802;28;20084;-71
2023/10/18 06:39:05;;;;;;;7.57;3.97;;;;;;;14.65;48.51;100934.84;5100151;28;20035;-71
2023/10/18 06:41:31;;;;;;;8.20;4.40;;;;;;;15.07;47.93;100937.25;5088776;28;20047;-71
2023/10/18 06:43:59;;;;;;;8.57;4.80;;;;;;;14.49;48.70;100933.47;5072856;28;20038;-71
2023/10/18 06:46:30;;;;;;;8.97;4.50;;;;;;;14.67;47.92;100932.16;5072400;28;20031;-71
2023/10/18 06:48:59;;;;;;;9.67;5.33;;;;;;;14.39;48.47;100923.16;5090498;28;20123;-71
2023/10/18 06:51:31;;;;;;;8.93;4.63;;;;;;;14.84;47.84;100918.59;5083881;28;20105;-71
2023/10/18 06:54:03;;;;;;;10.27;4.50;;;;;;;14.20;48.95;100912.22;5071857;28;20028;-71
2023/10/18 06:56:32;;;;;;;8.48;4.32;;;;;;;14.02;49.80;100916.16;5082870;28;20170;-71
2023/10/18 06:59:07;;;;;;;7.53;4.20;;;;;;;14.43;49.01;100916.94;5073647;28;20035;-71
2023/10/18 07:01:33;;;;;;;6.77;3.40;;;;;;;14.86;48.05;100916.78;5077165;28;20031;-71
2023/10/18 07:04:00;;;;;;;6.77;4.03;;;;;;;14.36;48.54;100912.72;5072633;28;20031;-71
2023/10/18 07:06:29;;;;;;;7.80;3.93;;;;;;;14.51;49.07;100905.38;5072930;28;20026;-70
2023/10/18 07:08:55;;;;;;;8.47;4.17;;;;;;;14.65;47.88;100905.91;5089616;28;20099;-71
2023/10/18 07:11:23;;;;;;;6.70;3.73;;;;;;;14.81;48.13;100893.22;5072931;28;20023;-71
2023/10/18 07:13:50;;;;;;;7.43;3.93;;;;;;;15.06;47.49;100903.09;5073150;28;20081;-71
2023/10/18 07:16:38;;;;;;;10.00;4.57;;;;;;;14.33;48.81;100897.03;5071849;28;20024;-71
2023/10/18 07:21:47;;;;;;;5.23;3.60;;;;;;;14.53;48.03;100903.56;5090728;28;20125;-71
2023/10/18 07:24:13;;;;;;;9.07;4.77;;;;;;;14.82;48.21;100901.97;5072532;28;20024;-71
2023/10/18 07:26:39;;;;;;;9.77;4.20;;;;;;;14.94;48.01;100896.38;5073128;28;20463;-71
2023/10/18 07:29:06;;;;;;;7.17;4.13;;;;;;;15.62;46.42;100897.09;5071758;28;20031;-71
2023/10/18 07:31:39;;;;;;;8.20;3.70;;;;;;;15.33;46.46;100896.19;5091164;28;20024;-71
2023/10/18 07:34:08;;;;;;;10.32;4.63;;;;;;;15.25;46.46;100888.50;5072483;28;20016;-71
2023/10/18 07:36:39;;;;;;;9.13;4.07;;;;;;;15.39;46.42;100880.19;5090220;28;20054;-71
2023/10/18 07:39:05;;;;;;;11.87;4.00;;;;;;;15.48;46.44;100878.19;5072616;28;20020;-70
2023/10/18 07:41:34;;;;;;;9.13;4.10;;;;;;;15.28;46.41;100877.00;5072601;28;20380;-71
2023/10/18 07:44:06;;;;;;;7.20;3.60;;;;;;;14.43;47.60;100871.38;5071394;28;20032;-71
2023/10/18 07:46:45;;;;;;;7.80;4.37;;;;;;;15.16;47.41;100865.06;5072872;28;20032;-70
2023/10/18 07:49:15;;;;;;;9.43;3.77;;;;;;;15.35;46.36;100862.75;5072236;28;20482;-71
2023/10/18 07:51:55;;;;;;;9.60;3.83;;;;;;;15.07;46.85;100862.66;5072090;28;20023;-71
2023/10/18 07:54:22;;;;;;;8.30;3.87;;;;;;;15.87;45.25;100849.78;5072775;28;20016;-71
2023/10/18 07:56:49;;;;;;;9.30;4.30;;;;;;;15.66;45.35;100861.84;5091146;28;20032;-71
2023/10/18 07:59:42;;;;;;;6.30;3.60;;;;;;;15.06;46.80;100864.44;5075069;28;20024;-71
2023/10/18 08:02:09;;;;;;;7.82;3.75;;;;;;;15.16;46.52;100867.69;5075881;28;20097;-71
2023/10/18 08:04:36;;;;;;;7.90;4.00;;;;;;;15.74;45.52;100859.84;5075567;28;20024;-71
2023/10/18 08:07:04;;;;;;;6.53;4.27;;;;;;;15.07;46.67;100853.03;5075546;28;20055;-71
2023/10/18 08:09:30;;;;;;;7.87;4.00;;;;;;;16.04;45.20;100841.31;5076218;28;20023;-71
2023/10/18 08:11:56;;;;;;;5.73;3.67;;;;;;;16.37;44.69;100833.19;5093398;28;20020;-71
2023/10/18 08:14:24;;;;;;;6.10;3.87;;;;;;;15.59;45.65;100824.28;5076008;28;20024;-71
2023/10/18 08:16:57;;;;;;;8.00;3.93;;;;;;;15.69;45.83;100823.97;5094268;28;20020;-71
2023/10/18 08:19:24;;;;;;;6.10;3.90;;;;;;;15.21;46.01;100830.72;5075523;28;20448;-70
2023/10/18 08:24:35;;;;;;;7.03;3.87;;;;;;;15.35;46.84;100831.16;5094252;28;20086;-71
2023/10/18 08:27:10;;;;;;;6.37;3.50;;;;;;;15.80;45.36;100815.75;5074844;28;20031;-71
2023/10/18 08:29:38;;;;;;;7.17;4.50;;;;;;;15.78;45.18;100814.03;5075761;28;20022;-71
2023/10/18 08:32:51;;;;;;;13.20;4.53;;;;;;;16.17;44.78;100810.16;5075086;28;20535;-70
2023/10/18 08:34:51;;;;;;;8.37;4.20;;;;;;;16.17;44.68;100819.81;5082469;28;20078;-71
2023/10/18 08:37:17;;;;;;;8.87;4.77;;;;;;;15.76;45.45;100813.19;5093637;28;20603;-71
2023/10/18 08:39:55;;;;;;;8.30;4.30;;;;;;;16.32;45.21;100806.16;5075026;28;20103;-71
2023/10/18 08:42:39;;;;;;;11.50;4.77;;;;;;;16.52;44.30;100799.31;5075662;28;20047;-71
2023/10/18 08:45:07;;;;;;;8.57;4.20;;;;;;;16.52;44.44;100800.16;5075119;28;20505;-71
2023/10/18 08:47:39;;;;;;;6.67;3.70;;;;;;;15.86;44.95;100800.63;5074531;28;20081;-71
2023/10/18 08:50:10;;;;;;;10.80;4.10;;;;;;;16.00;45.00;100792.25;5093044;28;20022;-71
2023/10/18 08:52:39;;;;;;;5.97;3.43;;;;;;;16.36;44.46;100786.66;5075567;28;20285;-71
2023/10/18 08:55:22;;;;;;;7.20;3.73;;;;;;;16.44;44.31;100784.63;5092475;28;20490;-71
2023/10/18 08:57:55;;;;;;;11.00;3.47;;;;;;;16.54;44.14;100787.78;5075098;28;20047;-71
2023/10/18 09:02:52;;;;;;;8.57;4.30;;;;;;;16.37;44.53;100764.63;5093460;28;20032;-71
2023/10/18 09:05:23;;;;;;;6.57;4.27;;;;;;;16.89;43.63;100766.34;5075053;28;20027;-71
2023/10/18 09:07:53;;;;;;;9.43;4.50;;;;;;;16.30;44.45;100763.13;5074410;28;20408;-71
2023/10/18 09:10:46;;;;;;;8.77;3.90;;;;;;;16.98;43.63;100766.00;5074521;28;20039;-71
2023/10/18 09:18:24;;;;;;;7.23;3.97;;;;;;;17.08;43.78;100748.88;5093110;28;20386;-71
2023/10/18 09:20:51;;;;;;;6.77;4.10;;;;;;;16.85;44.10;100744.41;5074754;28;20039;-71
2023/10/18 09:23:20;;;;;;;7.33;3.73;;;;;;;17.50;42.85;100734.00;5073889;28;20067;-71
2023/10/18 09:25:50;;;;;;;8.47;4.13;;;;;;;17.54;42.55;100726.81;5074889;28;20118;-71
2023/10/18 09:28:25;;;;;;;10.33;3.77;;;;;;;17.04;43.41;100728.78;5074637;28;20039;-71
2023/10/18 09:31:00;;;;;;;7.87;4.57;;;;;;;17.02;43.46;100728.00;5074566;28;20055;-71
2023/10/18 09:33:33;;;;;;;6.67;4.40;;;;;;;17.09;43.14;100726.81;5074569;28;20081;-71
2023/10/18 09:36:02;;;;;;;;;;;;;;;17.68;41.84;100713.94;5073451;28;20024;-71
2023/10/18 09:38:41;;;;;;;6.97;4.00;;;;;;;17.20;43.29;100717.59;5092757;28;19943;-71
2023/10/18 09:41:07;;;;;;;9.00;3.97;;;;;;;17.67;42.58;100709.56;5073894;28;20124;-71
2023/10/18 09:43:33;;;;;;;7.20;3.87;;;;;;;17.32;42.58;100703.91;5073448;28;20036;-71
2023/10/18 09:45:59;;;;;;;6.10;3.67;;;;;;;17.16;43.40;100692.25;5073955;28;20028;-71
2023/10/18 09:48:32;;;;;;;5.53;3.23;;;;;;;17.40;43.18;100683.31;5092403;28;20028;-71
2023/10/18 09:51:06;;;;;;;10.93;3.43;;;;;;;17.75;42.28;100674.84;5073022;28;20028;-71
2023/10/18 09:53:43;;;;;;;5.27;3.23;;;;;;;17.62;42.97;100672.72;5074192;28;20450;-71
2023/10/18 09:56:13;;;;;;;6.30;3.83;;;;;;;17.81;42.54;100664.88;5091610;28;20081;-70
2023/10/18 09:58:43;;;;;;;4.97;3.43;;;;;;;17.98;42.34;100660.69;5091653;28;20035;-71
2023/10/18 10:01:13;;;;;;;7.87;3.90;;;;;;;18.01;42.04;100644.69;5073583;28;20612;-71
2023/10/18 10:03:50;;;;;;;7.90;2.87;;;;;;;17.64;42.37;100646.25;5073131;28;20059;-71
2023/10/18 10:06:21;;;;;;;6.87;4.23;;;;;;;18.20;41.45;100630.63;5073551;28;20551;-71
2023/10/18 10:08:50;;;;;;;8.97;3.90;;;;;;;17.97;42.49;100640.47;5074160;28;20404;-71
2023/10/18 10:11:19;;;;;;;6.63;3.40;;;;;;;18.28;41.96;100633.78;5073046;28;20038;-71
2023/10/18 10:13:49;;;;;;;7.97;3.40;;;;;;;18.22;42.34;100639.38;5073942;28;20020;-71
2023/10/18 10:16:18;;;;;;;6.87;3.50;;;;;;;18.27;41.13;100634.72;5073799;28;20516;-71
2023/10/18 10:18:47;;;;;;;7.27;3.70;;;;;;;19.01;40.48;100628.66;5072927;28;20059;-71
2023/10/18 10:21:15;;;;;;;4.47;3.00;;;;;;;19.01;40.45;100633.94;5072353;28;20034;-71
2023/10/18 10:23:41;;;;;;;7.17;3.70;;;;;;;18.52;40.91;100623.00;5073735;28;20046;-71
2023/10/18 10:26:15;;;;;;;5.97;3.73;;;;;;;18.40;40.85;100613.88;5072209;28;20069;-71
2023/10/18 10:31:52;;;;;;;7.80;4.10;;;;;;;18.47;41.37;100602.91;5091947;28;20028;-71
2023/10/18 10:34:32;;;;;;;5.25;3.20;;;;;;;18.92;40.46;100610.59;5073162;28;20062;-71
2023/10/18 10:37:05;;;;;;;8.60;3.95;;;;;;;18.31;40.63;100597.50;5072887;28;20023;-70
2023/10/18 10:39:35;;;;;;;7.70;3.33;;;;;;;19.22;39.16;100599.38;5072823;28;20028;-71
2023/10/18 10:42:08;;;;;;;7.17;3.60;;;;;;;18.11;41.28;100598.38;5069149;28;20089;-71
2023/10/18 10:44:54;;;;;;;8.52;4.20;;;;;;;18.71;40.89;100600.06;5071428;28;20032;-71
2023/10/18 10:47:30;;;;;;;10.05;3.60;;;;;;;19.89;39.66;100581.00;5069417;28;20164;-70
2023/10/18 10:50:00;;;;;;;9.52;4.03;;;;;;;19.76;39.13;100573.66;5069365;28;20028;-70
2023/10/18 10:52:29;;;;;;;8.05;3.63;;;;;;;19.30;40.13;100570.72;5071314;28;20108;-70
2023/10/18 10:55:24;;;;;;;5.25;2.97;;;;;;;18.71;40.87;100547.13;5068814;28;20020;-70
2023/10/18 10:57:51;;;;;;;6.75;3.28;;;;;;;19.12;40.57;100554.84;5048840;28;20039;-70
2023/10/18 11:03:06;;;;;;;6.93;3.55;;;;;;;19.67;40.29;100529.06;5070772;28;20453;-70
2023/10/18 11:05:39;;;;;;;7.13;3.53;;;;;;;19.59;40.21;100525.94;5069818;28;20028;-70
2023/10/18 11:08:05;;;;;;;4.18;2.97;;;;;;;19.34;40.30;100524.56;5068900;28;20021;-70
2023/10/18 11:10:40;;;;;;;5.47;3.28;;;;;;;19.29;40.97;100516.88;5069864;28;20020;-71
2023/10/18 11:13:13;;;;;;;5.85;3.00;;;;;;;19.77;40.32;100516.16;5069217;28;20028;-70
2023/10/18 11:15:42;;;;;;;5.90;3.33;;;;;;;19.36;40.78;100514.78;5070502;28;20031;-70
2023/10/18 11:18:20;;;;;;;8.93;3.60;;;;;;;19.49;39.92;100502.59;5069294;28;20086;-70
2023/10/18 11:20:51;;;;;;;7.22;3.85;;;;;;;19.69;39.69;100502.44;5069742;28;20035;-70
2023/10/18 11:23:16;;;;;;;4.85;3.22;;;;;;;19.78;40.03;100497.53;5070425;28;20434;-70
2023/10/18 11:25:42;;;;;;;5.70;3.33;;;;;;;20.20;39.13;100486.50;5069658;28;20024;-71
2023/10/18 11:28:28;;;;;;;5.68;3.35;;;;;;;20.61;38.50;100472.66;5068351;28;20067;-70
2023/10/18 11:30:56;;;;;;;7.13;2.92;;;;;;;19.81;40.35;100470.88;5069634;28;20059;-70
2023/10/18 11:33:36;;;;;;;8.82;3.40;;;;;;;19.97;40.41;100464.72;5072897;28;20448;-70
2023/10/18 11:36:02;;;;;;;8.57;3.40;;;;;;;20.25;39.58;100452.56;5073910;28;20464;-70
2023/10/18 11:38:33;;;;;;;7.55;3.75;;;;;;;20.20;39.79;100452.84;5073816;28;20052;-71
2023/10/18 11:41:04;;;;;;;7.20;3.85;;;;;;;20.23;39.53;100443.84;5073470;28;20475;-70
2023/10/18 11:43:38;;;;;;;8.20;3.90;;;;;;;19.92;39.75;100429.63;5075848;28;20429;-71
2023/10/18 11:46:05;;;;;;;13.00;3.58;;;;;;;19.80;40.28;100437.34;5076404;28;20070;-70
2023/10/18 11:48:35;;;;;;;9.13;3.30;;;;;;;19.84;40.14;100427.44;5076863;28;20032;-70
2023/10/18 11:51:02;;;;;;;9.32;3.60;;;;;;;19.53;40.00;100415.81;5075594;28;20015;-71
2023/10/18 11:53:28;;;;;;;6.18;3.63;;;;;;;20.31;39.51;100415.09;5076465;28;20110;-70
2023/10/18 11:55:56;;;;;;;8.70;3.60;;;;;;;20.53;39.02;100420.00;5094263;28;20522;-72
2023/10/18 11:58:23;;;;;;;6.13;4.20;;;;;;;20.62;39.19;100413.28;5075793;28;20024;-71
2023/10/18 12:00:49;;;;;;;6.47;3.35;;;;;;;20.02;39.84;100412.28;5094798;28;20031;-70
2023/10/18 12:03:15;;;;;;;9.30;3.65;;;;;;;19.86;40.29;100408.78;5093119;28;20107;-71
2023/10/18 12:05:44;;;;;;;5.82;3.65;;;;;;;19.77;40.14;100416.28;5076505;28;20135;-71
2023/10/18 12:08:13;;;;;;;6.00;3.50;;;;;;;20.56;39.15;100408.34;5075846;28;20028;-71
2023/10/18 12:10:39;;;;;;;5.43;3.28;;;;;;;20.17;40.05;100403.44;5075429;28;20024;-71
2023/10/18 12:13:12;;;;;;;9.50;3.63;;;;;;;20.44;39.56;100389.56;5076011;28;20479;-70
2023/10/18 12:15:38;;;;;;;6.25;3.33;;;;;;;20.81;38.97;100395.38;5076348;28;20032;-71
2023/10/18 12:18:05;;;;;;;6.25;3.25;;;;;;;19.99;39.81;100384.13;5074662;28;20113;-70
2023/10/18 12:20:43;;;;;;;8.07;4.05;;;;;;;20.51;39.15;100369.66;5076095;28;20024;-71
2023/10/18 12:23:21;;;;;;;5.30;3.50;;;;;;;20.87;39.39;100369.38;5075803;28;20034;-71
2023/10/18 12:25:47;;;;;;;8.75;3.65;;;;;;;20.84;39.40;100367.75;5075357;28;20028;-71
2023/10/18 12:28:13;;;;;;;6.72;4.07;;;;;;;20.27;40.15;100356.00;5075379;28;20494;-71
2023/10/18 12:30:51;;;;;;;6.10;3.63;;;;;;;21.08;39.45;100346.81;5075783;28;20031;-70
2023/10/18 12:33:33;;;;;;;6.60;3.55;;;;;;;21.40;38.79;100351.06;5093323;28;20494;-71